Current | Forecast
Updated: 12:30 AM EEST on August 22, 2017
Observed at Odessa, Ukraine
Temperature 20°C
Humidity 88%
Dew Point 18°C
Wind North at 22 km/h
Pressure 1007 hPa (Steady)
Conditions Clear
Visibility -
UV N/A
Clouds
Yesterday's Maximum 31°C
Yesterday's Minimum 20°C approx.
Yesterday's Cooling Degree Days 13 approx.
Sunrise5:59 AM EEST
Sunset7:50 PM EEST
Moon Rise6:28 AM EEST
Moon Set8:20 PM EEST
Moon PhaseMoon Phase
New Moon
Raw METARMETAR UKOO 212130Z 36006MPS CAVOK 20/18 Q1007 R34/290054 NOSIG


Monday
. High: 60° F.
Tuesday
. High: 66° F.
Wednesday
. High: 68° F.
Thursday
. High: 71° F.
Friday
. High: 66° F.
Saturday
. High: 60° F.
Sunday
. High: 64° F.
Monday
. High: 68° F.

Units: English | Metric

Find the Weather for any City, State or Zipcode, or Country:

U.S. State List | Severe Weather | Tropical Storms | Ski Conditions
United States | Canada | Central America | South America | Asia | Europe | Australia | Africa | Islands

Weather Underground

© Copyright 2017
The Weather Company, LLC